Terminal Aerodrome Forecast
Issued by NWS

Home | Current Version | Previous Version | Text Only | Print | Product List | Glossary On
Versions: 1 2 3 4 5 6 7 8 9 10 11 12
175
FTUS46 KSGX 191730
TAFSNA
TAF
KSNA 191730Z 1918/2018 VRB06KT P6SM SCT025
      TEMPO 1918/1919 BKN025
     FM192000 22008KT P6SM FEW200
     FM200000 VRB06KT P6SM SCT020 SCT200
     FM200900 16011KT P6SM BKN020
     FM201600 19011KT P6SM SCT030=

USA.gov is the U.S. government's official web portal to all federal, state and local government web resources and services.